createdAt,value
2023-01-12T00:01:32.510Z,7.77
2023-01-12T00:03:59.280Z,7.82
2023-01-12T00:06:25.767Z,7.84
2023-01-12T00:08:53.324Z,7.86
2023-01-12T00:11:20.455Z,7.86
2023-01-12T00:13:47.515Z,7.87
2023-01-12T00:16:34.635Z,7.86
2023-01-12T00:19:13.155Z,7.87
2023-01-12T00:21:56.416Z,7.90
2023-01-12T00:24:36.286Z,7.90
2023-01-12T00:27:05.342Z,7.90
2023-01-12T00:29:32.128Z,7.91
2023-01-12T00:31:59.415Z,7.93
2023-01-12T00:34:28.571Z,7.97
2023-01-12T00:36:55.986Z,7.90
2023-01-12T00:39:22.417Z,7.95
2023-01-12T00:42:07.692Z,7.88
2023-01-12T00:44:52.452Z,7.98
2023-01-12T00:47:19.333Z,7.99
2023-01-12T00:49:47.125Z,7.98
2023-01-12T00:52:29.407Z,8.01
2023-01-12T00:54:56.683Z,8.02
2023-01-12T00:57:23.108Z,8.00
2023-01-12T00:59:49.576Z,8.01
2023-01-12T01:02:16.103Z,7.97
2023-01-12T01:04:42.569Z,7.95
2023-01-12T01:07:09.010Z,7.98
2023-01-12T01:09:35.552Z,8.03
2023-01-12T01:12:02.114Z,8.02
2023-01-12T01:14:28.591Z,8.05
2023-01-12T01:16:55.144Z,8.03
2023-01-12T01:19:21.951Z,8.00
2023-01-12T01:21:48.392Z,8.04
2023-01-12T01:24:14.947Z,8.03
2023-01-12T01:26:41.720Z,8.00
2023-01-12T01:29:08.403Z,8.00
2023-01-12T01:31:37.894Z,8.03
2023-01-12T01:34:04.387Z,8.08
2023-01-12T01:36:30.778Z,8.04
2023-01-12T01:38:57.577Z,8.04
2023-01-12T01:41:30.154Z,8.06
2023-01-12T01:44:04.517Z,8.07
2023-01-12T01:46:30.888Z,8.06
2023-01-12T01:49:02.419Z,8.08
2023-01-12T01:51:29.092Z,8.05
2023-01-12T01:53:55.510Z,8.05
2023-01-12T01:56:25.649Z,8.11
2023-01-12T01:59:07.044Z,8.10
2023-01-12T02:01:33.599Z,8.11
2023-01-12T02:04:00.793Z,8.14
2023-01-12T02:06:27.531Z,8.10
2023-01-12T02:08:57.747Z,8.10
2023-01-12T02:11:43.775Z,8.15
2023-01-12T02:14:29.231Z,8.12
2023-01-12T02:17:04.331Z,8.11
2023-01-12T02:19:49.856Z,8.08
2023-01-12T02:22:39.553Z,8.08
2023-01-12T02:25:15.092Z,8.13
2023-01-12T02:28:15.042Z,8.10
2023-01-12T02:31:00.066Z,8.07
2023-01-12T02:33:29.342Z,8.09
2023-01-12T02:36:12.900Z,8.02
2023-01-12T02:38:46.597Z,8.04
2023-01-12T02:41:45.831Z,8.06
2023-01-12T02:44:18.045Z,8.03
2023-01-12T02:46:46.157Z,7.99
2023-01-12T02:49:15.064Z,8.03
2023-01-12T02:52:00.301Z,8.04
2023-01-12T02:54:28.074Z,8.01
2023-01-12T02:56:56.696Z,8.01
2023-01-12T02:59:25.627Z,8.04
2023-01-12T03:01:53.724Z,8.02
2023-01-12T03:04:20.506Z,8.03
2023-01-12T03:06:56.275Z,8.04
2023-01-12T03:09:27.175Z,8.03
2023-01-12T03:11:56.021Z,8.03
2023-01-12T03:14:22.839Z,8.02
2023-01-12T03:16:49.934Z,8.03
2023-01-12T03:19:20.518Z,8.04
2023-01-12T03:21:58.593Z,8.04
2023-01-12T03:24:30.764Z,8.06
2023-01-12T03:27:02.542Z,8.03
2023-01-12T03:29:35.240Z,8.07
2023-01-12T03:32:01.934Z,7.99
2023-01-12T03:34:28.723Z,8.02
2023-01-12T03:37:22.570Z,8.02
2023-01-12T03:39:58.025Z,8.00
2023-01-12T03:42:51.876Z,8.00
2023-01-12T03:45:39.977Z,7.95
2023-01-12T03:48:41.338Z,7.96
2023-01-12T03:51:24.015Z,7.94
2023-01-12T03:53:51.758Z,7.93
2023-01-12T03:56:19.918Z,7.88
2023-01-12T03:58:47.406Z,7.88
2023-01-12T04:01:14.102Z,7.86
2023-01-12T04:03:40.690Z,7.87
2023-01-12T04:06:08.304Z,7.83
2023-01-12T04:08:35.060Z,7.82
2023-01-12T04:11:21.570Z,7.86
2023-01-12T04:13:47.979Z,7.88
2023-01-12T04:16:14.427Z,7.86
2023-01-12T04:18:40.885Z,7.88
2023-01-12T04:21:27.284Z,7.88
2023-01-12T04:23:53.877Z,7.90
2023-01-12T04:26:20.505Z,7.88
2023-01-12T04:28:46.883Z,7.89
2023-01-12T04:31:13.341Z,7.90
2023-01-12T04:33:39.758Z,7.93
2023-01-12T04:36:06.544Z,7.96
2023-01-12T04:38:33.199Z,7.93
2023-01-12T04:40:59.619Z,7.94
2023-01-12T04:43:26.002Z,7.93
2023-01-12T04:45:52.718Z,7.95
2023-01-12T04:48:19.464Z,7.96
2023-01-12T04:50:45.909Z,7.97
2023-01-12T04:53:12.919Z,7.99
2023-01-12T04:55:41.492Z,7.98
2023-01-12T04:58:08.044Z,8.01
2023-01-12T05:00:35.117Z,8.01
2023-01-12T05:03:02.244Z,8.02
2023-01-12T05:05:30.163Z,8.07
2023-01-12T05:08:18.706Z,8.07
2023-01-12T05:10:50.223Z,8.09
2023-01-12T05:13:16.616Z,8.08
2023-01-12T05:15:43.042Z,8.07
2023-01-12T05:18:09.412Z,8.11
2023-01-12T05:20:35.814Z,8.13
2023-01-12T05:23:02.269Z,8.15
2023-01-12T05:25:29.414Z,8.12
2023-01-12T05:27:57.802Z,8.17
2023-01-12T05:30:25.449Z,8.15
2023-01-12T05:32:51.900Z,8.19
2023-01-12T05:35:18.443Z,8.17
2023-01-12T05:37:45.219Z,8.22
2023-01-12T05:40:12.149Z,8.24
2023-01-12T05:42:57.646Z,8.22
2023-01-12T05:45:24.165Z,8.24
2023-01-12T05:47:58.681Z,8.24
2023-01-12T05:50:25.079Z,8.23
2023-01-12T05:52:52.191Z,8.28
2023-01-12T05:55:18.980Z,8.30
2023-01-12T05:57:45.407Z,8.27
2023-01-12T06:00:12.240Z,8.28
2023-01-12T06:02:38.716Z,8.28
2023-01-12T06:05:08.282Z,8.31
2023-01-12T06:07:34.803Z,8.32
2023-01-12T06:10:01.287Z,8.33
2023-01-12T06:12:46.302Z,8.32
2023-01-12T06:15:13.452Z,8.32
2023-01-12T06:17:39.882Z,8.34
2023-01-12T06:20:06.985Z,8.31
2023-01-12T06:22:33.435Z,8.26
2023-01-12T06:24:59.845Z,8.23
2023-01-12T06:27:26.305Z,8.22
2023-01-12T06:29:52.779Z,8.15
2023-01-12T06:32:19.166Z,8.14
2023-01-12T06:34:45.601Z,8.17
2023-01-12T06:37:13.057Z,8.13
2023-01-12T06:39:39.495Z,8.13
2023-01-12T06:42:24.754Z,8.10
2023-01-12T06:44:51.138Z,8.09
2023-01-12T06:47:17.552Z,8.04
2023-01-12T06:49:44.018Z,8.10
2023-01-12T06:52:10.910Z,8.04
2023-01-12T06:54:37.330Z,8.05
2023-01-12T06:57:03.871Z,8.09
2023-01-12T06:59:30.321Z,8.08
2023-01-12T07:01:56.784Z,7.99
2023-01-12T07:04:23.310Z,8.01
2023-01-12T07:06:49.724Z,7.99
2023-01-12T07:09:16.130Z,8.01
2023-01-12T07:11:42.575Z,7.99
2023-01-12T07:14:09.384Z,8.00
2023-01-12T07:16:35.986Z,8.05
2023-01-12T07:19:02.892Z,8.01
2023-01-12T07:21:29.374Z,8.00
2023-01-12T07:23:55.752Z,8.01
2023-01-12T07:26:22.471Z,8.03
2023-01-12T07:28:48.975Z,8.05
2023-01-12T07:31:15.462Z,8.07
2023-01-12T07:33:41.929Z,8.09
2023-01-12T07:36:08.443Z,8.09
2023-01-12T07:38:34.984Z,8.11
2023-01-12T07:41:02.199Z,8.15
2023-01-12T07:43:29.144Z,8.20
2023-01-12T07:45:57.352Z,8.22
2023-01-12T07:48:24.938Z,8.25
2023-01-12T07:50:51.993Z,8.25
2023-01-12T07:53:19.735Z,8.31
2023-01-12T07:55:46.359Z,8.32
2023-01-12T07:58:13.901Z,8.33
2023-01-12T08:00:40.346Z,8.34
2023-01-12T08:03:09.032Z,8.37
2023-01-12T08:05:36.556Z,8.42
2023-01-12T08:08:03.860Z,8.44
2023-01-12T08:10:30.383Z,8.44
2023-01-12T08:12:56.930Z,8.46
2023-01-12T08:15:24.399Z,8.47
2023-01-12T08:18:00.353Z,8.46
2023-01-12T08:20:35.045Z,8.53
2023-01-12T08:23:09.870Z,8.55
2023-01-12T08:25:38.656Z,8.57
2023-01-12T08:28:07.082Z,8.61
2023-01-12T08:30:33.571Z,8.58
2023-01-12T08:33:00.904Z,8.61
2023-01-12T08:35:29.779Z,8.62
2023-01-12T08:37:57.007Z,8.63
2023-01-12T08:40:24.452Z,8.62
2023-01-12T08:42:50.860Z,8.67
2023-01-12T08:45:17.440Z,8.64
2023-01-12T08:47:45.148Z,8.65
2023-01-12T08:50:11.583Z,8.66
2023-01-12T08:52:37.998Z,8.66
2023-01-12T08:55:04.775Z,8.68
2023-01-12T08:57:31.181Z,8.68
2023-01-12T08:59:57.820Z,8.66
2023-01-12T09:02:26.863Z,8.63
2023-01-12T09:04:53.302Z,8.66
2023-01-12T09:07:20.915Z,8.70
2023-01-12T09:09:47.310Z,8.67
2023-01-12T09:12:13.686Z,8.70
2023-01-12T09:14:40.137Z,8.68
2023-01-12T09:17:07.308Z,8.73
2023-01-12T09:19:33.912Z,8.71
2023-01-12T09:22:00.890Z,8.74
2023-01-12T09:24:27.616Z,8.77
2023-01-12T09:26:54.106Z,8.76
2023-01-12T09:29:20.619Z,8.78
2023-01-12T09:31:47.069Z,8.81
2023-01-12T09:34:13.651Z,8.82
2023-01-12T09:36:40.994Z,8.83
2023-01-12T09:39:10.307Z,8.86
2023-01-12T09:41:59.806Z,8.89
2023-01-12T09:44:52.604Z,8.92
2023-01-12T09:47:34.338Z,8.90
2023-01-12T09:50:16.537Z,8.92
2023-01-12T09:52:55.806Z,8.98
2023-01-12T09:55:27.956Z,8.98
2023-01-12T09:57:57.826Z,8.99
2023-01-12T10:00:24.806Z,9.02
2023-01-12T10:02:54.942Z,9.01
2023-01-12T10:05:42.645Z,9.06
2023-01-12T10:08:30.236Z,9.11
2023-01-12T10:11:12.271Z,9.14
2023-01-12T10:14:00.595Z,9.14
2023-01-12T10:16:38.702Z,9.16
2023-01-12T10:19:21.589Z,9.20
2023-01-12T10:21:49.793Z,9.20
2023-01-12T10:24:21.264Z,9.18
2023-01-12T10:26:51.829Z,9.16
2023-01-12T10:29:19.100Z,9.20
2023-01-12T10:31:45.615Z,9.21
2023-01-12T10:34:12.208Z,9.21
2023-01-12T10:36:55.780Z,9.22
2023-01-12T10:39:34.123Z,9.17
2023-01-12T10:42:42.243Z,9.17
2023-01-12T10:45:18.955Z,9.10
2023-01-12T10:47:46.557Z,9.10
2023-01-12T10:50:27.308Z,9.08
2023-01-12T10:53:01.451Z,9.04
2023-01-12T10:55:34.288Z,9.02
2023-01-12T10:58:00.789Z,9.03
2023-01-12T11:00:28.336Z,9.05
2023-01-12T11:02:54.790Z,9.05
2023-01-12T11:05:38.362Z,9.09
2023-01-12T11:08:26.836Z,9.11
2023-01-12T11:10:53.728Z,9.08
2023-01-12T11:13:36.568Z,9.08
2023-01-12T11:16:11.831Z,9.08
2023-01-12T11:18:46.937Z,9.10
2023-01-12T11:21:15.323Z,9.05
2023-01-12T11:24:05.495Z,9.07
2023-01-12T11:26:56.592Z,9.08
2023-01-12T11:29:54.304Z,9.13
2023-01-12T11:32:42.486Z,9.12
2023-01-12T11:35:27.809Z,9.11
2023-01-12T11:37:58.672Z,9.15
2023-01-12T11:40:34.927Z,9.11
2023-01-12T11:43:30.019Z,9.13
2023-01-12T11:46:04.882Z,9.11
2023-01-12T11:49:07.255Z,9.13
2023-01-12T11:51:33.803Z,9.12
2023-01-12T11:54:00.391Z,9.16
2023-01-12T11:57:11.547Z,9.17
2023-01-12T11:59:56.748Z,9.16
2023-01-12T12:02:36.892Z,9.23
2023-01-12T12:05:05.467Z,9.27
2023-01-12T12:07:49.833Z,9.28
2023-01-12T12:10:22.435Z,9.26
2023-01-12T12:13:11.719Z,9.33
2023-01-12T12:16:03.061Z,9.35
2023-01-12T12:18:54.425Z,9.32
2023-01-12T12:21:29.845Z,9.29
2023-01-12T12:24:10.303Z,9.31
2023-01-12T12:26:52.395Z,9.36
2023-01-12T12:29:31.087Z,9.36
2023-01-12T12:32:38.755Z,9.40
2023-01-12T12:35:23.606Z,9.41
2023-01-12T12:37:53.383Z,9.41
2023-01-12T12:41:11.591Z,9.44
2023-01-12T12:43:56.922Z,9.42
2023-01-12T12:46:31.720Z,9.43
2023-01-12T12:49:05.308Z,9.47
2023-01-12T12:51:34.140Z,9.42
2023-01-12T12:54:04.332Z,9.43
2023-01-12T12:56:34.394Z,9.44
2023-01-12T12:59:01.599Z,9.40
2023-01-12T13:01:28.033Z,9.44
2023-01-12T13:04:01.811Z,9.41
2023-01-12T13:06:32.715Z,9.45
2023-01-12T13:09:03.386Z,9.40
2023-01-12T13:11:54.730Z,9.45
2023-01-12T13:14:30.248Z,9.48
2023-01-12T13:17:00.363Z,9.49
2023-01-12T13:19:37.376Z,9.50
2023-01-12T13:22:27.897Z,9.48
2023-01-12T13:24:56.151Z,9.51
2023-01-12T13:27:47.560Z,9.52
2023-01-12T13:30:26.214Z,9.53
2023-01-12T13:33:17.566Z,9.58
2023-01-12T13:35:46.956Z,9.61
2023-01-12T13:38:43.611Z,9.63
2023-01-12T13:41:47.925Z,9.56
2023-01-12T13:44:24.448Z,9.52
2023-01-12T13:46:55.428Z,9.54
2023-01-12T13:49:28.882Z,9.53
2023-01-12T13:51:59.492Z,9.45
2023-01-12T13:54:26.581Z,9.45
2023-01-12T13:56:56.093Z,9.45
2023-01-12T13:59:22.634Z,9.43
2023-01-12T14:01:49.140Z,9.49
2023-01-12T14:04:19.437Z,9.46
2023-01-12T14:07:12.184Z,9.45
2023-01-12T14:10:00.313Z,9.48
2023-01-12T14:13:17.383Z,9.49
2023-01-12T14:16:02.937Z,9.48
2023-01-12T14:18:49.869Z,9.49
2023-01-12T14:21:37.395Z,9.49
2023-01-12T14:24:14.632Z,9.49
2023-01-12T14:26:41.138Z,9.46
2023-01-12T14:29:08.891Z,9.55
2023-01-12T14:31:48.344Z,9.53
2023-01-12T14:34:22.623Z,9.57
2023-01-12T14:36:49.309Z,9.61
2023-01-12T14:39:20.231Z,9.65
2023-01-12T14:42:10.482Z,9.63
2023-01-12T14:44:58.609Z,9.65
2023-01-12T14:47:27.124Z,9.69
2023-01-12T14:49:53.730Z,9.71
2023-01-12T14:52:26.140Z,9.66
2023-01-12T14:54:52.665Z,9.69
2023-01-12T14:57:34.451Z,9.67
2023-01-12T15:00:01.920Z,9.64
2023-01-12T15:02:33.528Z,9.62
2023-01-12T15:05:08.905Z,9.59
2023-01-12T15:07:40.401Z,9.58
2023-01-12T15:10:09.798Z,9.51
2023-01-12T15:12:47.195Z,9.55
2023-01-12T15:15:24.808Z,9.55
2023-01-12T15:18:13.867Z,9.56
2023-01-12T15:21:01.041Z,9.58
2023-01-12T15:23:55.827Z,9.61
2023-01-12T15:26:22.368Z,9.62
2023-01-12T15:28:49.498Z,9.60
2023-01-12T15:31:25.431Z,9.63
2023-01-12T15:33:52.051Z,9.65
2023-01-12T15:36:18.536Z,9.65
2023-01-12T15:38:45.023Z,9.69
2023-01-12T15:41:43.011Z,9.68
2023-01-12T15:44:14.153Z,9.65
2023-01-12T15:46:41.388Z,9.64
2023-01-12T15:49:08.282Z,9.55
2023-01-12T15:51:34.924Z,9.54
2023-01-12T15:54:02.732Z,9.54
2023-01-12T15:56:29.181Z,9.52
2023-01-12T15:58:57.666Z,9.53
2023-01-12T16:01:28.980Z,9.52
2023-01-12T16:04:15.434Z,9.57
2023-01-12T16:06:41.874Z,9.63
2023-01-12T16:09:08.300Z,9.62
2023-01-12T16:11:34.696Z,9.65
2023-01-12T16:14:01.154Z,9.63
2023-01-12T16:16:29.004Z,9.56
2023-01-12T16:18:59.792Z,9.56
2023-01-12T16:21:27.850Z,9.51
2023-01-12T16:23:57.500Z,9.51
2023-01-12T16:26:25.200Z,9.57
2023-01-12T16:28:51.635Z,9.50
2023-01-12T16:31:18.228Z,9.49
2023-01-12T16:33:44.966Z,9.48
2023-01-12T16:36:12.868Z,9.49
2023-01-12T16:38:39.355Z,9.47
2023-01-12T16:41:24.333Z,9.43
2023-01-12T16:43:50.977Z,9.43
2023-01-12T16:46:17.773Z,9.44
2023-01-12T16:48:44.795Z,9.47
2023-01-12T16:51:16.143Z,9.52
2023-01-12T16:53:42.696Z,9.49
2023-01-12T16:56:14.075Z,9.51
2023-01-12T16:58:42.460Z,9.55
2023-01-12T17:01:13.296Z,9.57
2023-01-12T17:03:41.541Z,9.53
2023-01-12T17:06:14.667Z,9.53
2023-01-12T17:08:41.690Z,9.55
2023-01-12T17:11:13.521Z,9.51
2023-01-12T17:13:40.392Z,9.60
2023-01-12T17:16:08.211Z,9.56
2023-01-12T17:18:36.539Z,9.57
2023-01-12T17:21:09.232Z,9.56
2023-01-12T17:23:36.135Z,9.56
2023-01-12T17:26:03.505Z,9.49
2023-01-12T17:28:30.478Z,9.49
2023-01-12T17:30:57.690Z,9.45
2023-01-12T17:33:24.221Z,9.48
2023-01-12T17:35:50.781Z,9.47
2023-01-12T17:38:17.194Z,9.43
2023-01-12T17:40:43.621Z,9.46
2023-01-12T17:43:14.492Z,9.45
2023-01-12T17:45:42.576Z,9.47
2023-01-12T17:48:10.284Z,9.49
2023-01-12T17:50:39.533Z,9.50
2023-01-12T17:53:09.190Z,9.51
2023-01-12T17:55:43.595Z,9.53
2023-01-12T17:58:14.455Z,9.58
2023-01-12T18:00:40.872Z,9.59
2023-01-12T18:03:07.349Z,9.58
2023-01-12T18:05:33.829Z,9.60
2023-01-12T18:08:00.242Z,9.56
2023-01-12T18:10:26.751Z,9.61
2023-01-12T18:12:53.204Z,9.64
2023-01-12T18:15:19.951Z,9.58
2023-01-12T18:17:46.442Z,9.67
2023-01-12T18:20:12.911Z,9.65
2023-01-12T18:22:39.393Z,9.63
2023-01-12T18:25:06.056Z,9.66
2023-01-12T18:27:32.468Z,9.65
2023-01-12T18:29:58.855Z,9.71
2023-01-12T18:32:25.281Z,9.68
2023-01-12T18:34:52.398Z,9.70
2023-01-12T18:37:18.892Z,9.72
2023-01-12T18:39:46.754Z,9.70
2023-01-12T18:42:31.869Z,9.71
2023-01-12T18:44:59.488Z,9.69
2023-01-12T18:47:44.459Z,9.63
2023-01-12T18:50:31.141Z,9.68
2023-01-12T18:53:16.223Z,9.67
2023-01-12T18:55:42.644Z,9.69
2023-01-12T18:58:09.273Z,9.65
2023-01-12T19:00:35.774Z,9.68
2023-01-12T19:03:03.752Z,9.65
2023-01-12T19:05:33.013Z,9.65
2023-01-12T19:07:59.443Z,9.60
2023-01-12T19:10:27.580Z,9.58
2023-01-12T19:13:14.097Z,9.56
2023-01-12T19:16:00.269Z,9.59
2023-01-12T19:18:27.165Z,9.58
2023-01-12T19:21:13.676Z,9.58
2023-01-12T19:23:58.667Z,9.60
2023-01-12T19:26:43.440Z,9.62
2023-01-12T19:29:09.903Z,9.63
2023-01-12T19:31:36.430Z,9.62
2023-01-12T19:34:02.931Z,9.65
2023-01-12T19:36:29.398Z,9.64
2023-01-12T19:38:58.577Z,9.60
2023-01-12T19:41:43.753Z,9.60
2023-01-12T19:44:10.155Z,9.61
2023-01-12T19:46:36.597Z,9.69
2023-01-12T19:49:03.058Z,9.67
2023-01-12T19:51:29.456Z,9.66
2023-01-12T19:53:55.835Z,9.69
2023-01-12T19:56:22.349Z,9.71
2023-01-12T19:58:48.848Z,9.70
2023-01-12T20:01:23.175Z,9.70
2023-01-12T20:03:50.755Z,9.73
2023-01-12T20:06:17.401Z,9.68
2023-01-12T20:08:44.105Z,9.70
2023-01-12T20:11:10.615Z,9.72
2023-01-12T20:13:37.098Z,9.70
2023-01-12T20:16:08.428Z,9.72
2023-01-12T20:18:35.293Z,9.70
2023-01-12T20:21:03.409Z,9.70
2023-01-12T20:23:29.860Z,9.70
2023-01-12T20:25:56.297Z,9.68
2023-01-12T20:28:22.768Z,9.70
2023-01-12T20:30:49.184Z,9.69
2023-01-12T20:33:15.690Z,9.72
2023-01-12T20:35:47.902Z,9.64
2023-01-12T20:38:16.468Z,9.67
2023-01-12T20:40:46.548Z,9.67
2023-01-12T20:43:13.349Z,9.63
2023-01-12T20:45:41.656Z,9.67
2023-01-12T20:48:08.335Z,9.62
2023-01-12T20:50:34.722Z,9.59
2023-01-12T20:53:01.191Z,9.53
2023-01-12T20:55:27.645Z,9.49
2023-01-12T20:57:54.085Z,9.48
2023-01-12T21:00:20.645Z,9.52
2023-01-12T21:02:47.063Z,9.48
2023-01-12T21:05:13.443Z,9.51
2023-01-12T21:07:39.881Z,9.54
2023-01-12T21:10:08.724Z,9.56
2023-01-12T21:12:35.161Z,9.55
2023-01-12T21:15:01.585Z,9.56
2023-01-12T21:17:27.982Z,9.56
2023-01-12T21:19:54.391Z,9.54
2023-01-12T21:22:21.052Z,9.52
2023-01-12T21:24:47.567Z,9.54
2023-01-12T21:27:14.031Z,9.53
2023-01-12T21:29:40.468Z,9.55
2023-01-12T21:32:07.122Z,9.54
2023-01-12T21:34:33.564Z,9.54
2023-01-12T21:37:00.033Z,9.54
2023-01-12T21:39:26.470Z,9.59
2023-01-12T21:42:11.549Z,9.58
2023-01-12T21:44:37.947Z,9.63
2023-01-12T21:47:04.392Z,9.60
2023-01-12T21:49:31.967Z,9.62
2023-01-12T21:51:58.405Z,9.64
2023-01-12T21:54:24.850Z,9.61
2023-01-12T21:56:51.310Z,9.66
2023-01-12T21:59:18.382Z,9.66
2023-01-12T22:01:45.392Z,9.65
2023-01-12T22:04:11.957Z,9.65
2023-01-12T22:06:38.362Z,9.68
2023-01-12T22:09:04.749Z,9.67
2023-01-12T22:11:31.143Z,9.61
2023-01-12T22:13:57.573Z,9.58
2023-01-12T22:16:24.195Z,9.62
2023-01-12T22:18:51.077Z,9.60
2023-01-12T22:21:19.073Z,9.55
2023-01-12T22:23:45.511Z,9.52
2023-01-12T22:26:13.991Z,9.57
2023-01-12T22:28:42.066Z,9.58
2023-01-12T22:31:14.049Z,9.60
2023-01-12T22:33:44.114Z,9.60
2023-01-12T22:36:10.491Z,9.57
2023-01-12T22:38:36.901Z,9.56
2023-01-12T22:41:06.825Z,9.56
2023-01-12T22:43:38.905Z,9.53
2023-01-12T22:46:05.367Z,9.57
2023-01-12T22:48:31.817Z,9.56
2023-01-12T22:50:59.721Z,9.52
2023-01-12T22:53:26.159Z,9.48
2023-01-12T22:55:52.581Z,9.50
2023-01-12T22:58:18.999Z,9.51
2023-01-12T23:00:45.584Z,9.49
2023-01-12T23:03:13.460Z,9.52
2023-01-12T23:05:48.666Z,9.49
2023-01-12T23:08:16.314Z,9.47
2023-01-12T23:10:43.537Z,9.46
2023-01-12T23:13:18.828Z,9.48
2023-01-12T23:15:57.503Z,9.46
2023-01-12T23:18:27.876Z,9.44
2023-01-12T23:21:01.498Z,9.46
2023-01-12T23:23:30.454Z,9.51
2023-01-12T23:26:05.094Z,9.55
2023-01-12T23:28:35.539Z,9.54
2023-01-12T23:31:03.856Z,9.54
2023-01-12T23:33:30.365Z,9.61
2023-01-12T23:36:02.139Z,9.57
2023-01-12T23:38:28.522Z,9.62
2023-01-12T23:40:58.054Z,9.65
2023-01-12T23:43:25.160Z,9.62
2023-01-12T23:45:52.470Z,9.63
2023-01-12T23:48:18.895Z,9.60
2023-01-12T23:50:45.307Z,9.59
2023-01-12T23:53:12.085Z,9.56
2023-01-12T23:55:39.247Z,9.54
2023-01-12T23:58:06.414Z,9.56
